Von Ormy, Texas
Current Conditions -  °F | °C
As of 10:58 AM on Sunday 23 Nov 2014 (Local Time) from KSKF Reporting Station
Clear Clear  
Wind Chill: 71°   Ceiling: Unl
Heat Index: 71°   Visibility: 10mi
Dew Point: 53°   Wind: 14mph
Humidity: 54%   Direction: 260°W
Pressure: 29.69"   Gusts: NA
Location:  29.29°N, 98.64°W
Report Text: KSKF 231658Z AUTO 26012KT 10SM CLR 22/12 A2969 RMK AO2 SLP050 T02160119 $
Loading
Personal Weather Stations






























Interactive Weather Map New forecast layout! Learn more

10-Day Weather Forecast

Advertisements
Track Severe Weather on mobile